sensor_id;sensor_type;location;lat;lon;timestamp;P1;durP1;ratioP1;P2;durP2;ratioP2
71413;SDS011;59226;53.212;5.728;2022-09-12T00:01:34;5.13;;;2.17;;
71413;SDS011;59226;53.212;5.728;2022-09-12T00:03:59;5.63;;;2.47;;
71413;SDS011;59226;53.212;5.728;2022-09-12T00:06:28;8.75;;;2.13;;
71413;SDS011;59226;53.212;5.728;2022-09-12T00:08:54;5.78;;;2.55;;
71413;SDS011;59226;53.212;5.728;2022-09-12T00:11:20;5.57;;;2.43;;
71413;SDS011;59226;53.212;5.728;2022-09-12T00:13:45;4.78;;;2.30;;
71413;SDS011;59226;53.212;5.728;2022-09-12T00:16:14;5.10;;;2.67;;
71413;SDS011;59226;53.212;5.728;2022-09-12T00:18:40;4.03;;;2.30;;
71413;SDS011;59226;53.212;5.728;2022-09-12T00:21:06;3.23;;;2.37;;
71413;SDS011;59226;53.212;5.728;2022-09-12T00:23:31;6.23;;;3.40;;
71413;SDS011;59226;53.212;5.728;2022-09-12T00:25:57;5.83;;;2.77;;
71413;SDS011;59226;53.212;5.728;2022-09-12T00:28:22;9.60;;;2.60;;
71413;SDS011;59226;53.212;5.728;2022-09-12T00:30:47;4.63;;;2.57;;
71413;SDS011;59226;53.212;5.728;2022-09-12T00:33:13;5.00;;;2.28;;
71413;SDS011;59226;53.212;5.728;2022-09-12T00:35:40;4.85;;;2.63;;
71413;SDS011;59226;53.212;5.728;2022-09-12T00:38:05;5.20;;;2.70;;
71413;SDS011;59226;53.212;5.728;2022-09-12T00:40:30;4.90;;;2.10;;
71413;SDS011;59226;53.212;5.728;2022-09-12T00:42:55;5.70;;;2.83;;
71413;SDS011;59226;53.212;5.728;2022-09-12T00:45:22;4.77;;;2.30;;
71413;SDS011;59226;53.212;5.728;2022-09-12T00:47:51;4.65;;;2.42;;
71413;SDS011;59226;53.212;5.728;2022-09-12T00:50:16;5.57;;;2.37;;
71413;SDS011;59226;53.212;5.728;2022-09-12T00:55:10;5.07;;;1.97;;
71413;SDS011;59226;53.212;5.728;2022-09-12T00:58:22;3.25;;;1.60;;
71413;SDS011;59226;53.212;5.728;2022-09-12T01:00:22;4.22;;;2.13;;
71413;SDS011;59226;53.212;5.728;2022-09-12T01:02:49;4.32;;;3.03;;
71413;SDS011;59226;53.212;5.728;2022-09-12T01:05:15;6.17;;;3.20;;
71413;SDS011;59226;53.212;5.728;2022-09-12T01:07:40;5.43;;;2.33;;
71413;SDS011;59226;53.212;5.728;2022-09-12T01:10:07;7.10;;;3.08;;
71413;SDS011;59226;53.212;5.728;2022-09-12T01:12:32;4.38;;;2.25;;
71413;SDS011;59226;53.212;5.728;2022-09-12T01:14:58;4.95;;;2.67;;
71413;SDS011;59226;53.212;5.728;2022-09-12T01:17:24;5.33;;;3.20;;
71413;SDS011;59226;53.212;5.728;2022-09-12T01:35:24;6.07;;;2.88;;
71413;SDS011;59226;53.212;5.728;2022-09-12T01:43:25;4.80;;;3.03;;
71413;SDS011;59226;53.212;5.728;2022-09-12T01:48:28;6.65;;;3.40;;
71413;SDS011;59226;53.212;5.728;2022-09-12T01:51:01;5.00;;;2.28;;
71413;SDS011;59226;53.212;5.728;2022-09-12T01:53:29;5.03;;;2.67;;
71413;SDS011;59226;53.212;5.728;2022-09-12T01:56:39;5.22;;;2.33;;
71413;SDS011;59226;53.212;5.728;2022-09-12T01:58:57;4.40;;;2.50;;
71413;SDS011;59226;53.212;5.728;2022-09-12T02:01:28;4.85;;;2.60;;
71413;SDS011;59226;53.212;5.728;2022-09-12T02:04:08;4.88;;;2.58;;
71413;SDS011;59226;53.212;5.728;2022-09-12T02:09:26;3.67;;;2.03;;
71413;SDS011;59226;53.212;5.728;2022-09-12T02:11:56;5.75;;;3.30;;
71413;SDS011;59226;53.212;5.728;2022-09-12T02:14:22;4.07;;;2.33;;
71413;SDS011;59226;53.212;5.728;2022-09-12T02:16:53;5.15;;;2.22;;
71413;SDS011;59226;53.212;5.728;2022-09-12T02:19:20;4.10;;;2.30;;
71413;SDS011;59226;53.212;5.728;2022-09-12T02:21:54;8.32;;;2.90;;
71413;SDS011;59226;53.212;5.728;2022-09-12T02:24:19;8.35;;;2.75;;
71413;SDS011;59226;53.212;5.728;2022-09-12T02:26:48;11.60;;;3.33;;
71413;SDS011;59226;53.212;5.728;2022-09-12T02:29:15;4.15;;;2.53;;
71413;SDS011;59226;53.212;5.728;2022-09-12T02:31:45;5.20;;;2.53;;
71413;SDS011;59226;53.212;5.728;2022-09-12T02:34:21;3.97;;;2.28;;
71413;SDS011;59226;53.212;5.728;2022-09-12T02:37:06;4.57;;;2.42;;
71413;SDS011;59226;53.212;5.728;2022-09-12T02:39:34;5.57;;;2.75;;
71413;SDS011;59226;53.212;5.728;2022-09-12T02:41:59;5.17;;;3.47;;
71413;SDS011;59226;53.212;5.728;2022-09-12T02:44:27;5.18;;;2.42;;
71413;SDS011;59226;53.212;5.728;2022-09-12T02:46:54;9.65;;;2.88;;
71413;SDS011;59226;53.212;5.728;2022-09-12T02:49:20;8.83;;;3.40;;
71413;SDS011;59226;53.212;5.728;2022-09-12T02:51:46;3.45;;;1.92;;
71413;SDS011;59226;53.212;5.728;2022-09-12T02:54:12;6.80;;;3.30;;
71413;SDS011;59226;53.212;5.728;2022-09-12T02:56:39;3.73;;;2.73;;
71413;SDS011;59226;53.212;5.728;2022-09-12T02:59:05;5.20;;;3.15;;
71413;SDS011;59226;53.212;5.728;2022-09-12T03:06:49;3.95;;;2.13;;
71413;SDS011;59226;53.212;5.728;2022-09-12T03:19:31;5.70;;;2.88;;
71413;SDS011;59226;53.212;5.728;2022-09-12T03:24:33;6.70;;;2.93;;
71413;SDS011;59226;53.212;5.728;2022-09-12T03:29:24;7.73;;;2.87;;
71413;SDS011;59226;53.212;5.728;2022-09-12T03:31:54;6.47;;;2.95;;
71413;SDS011;59226;53.212;5.728;2022-09-12T03:34:20;7.60;;;3.40;;
71413;SDS011;59226;53.212;5.728;2022-09-12T03:36:46;6.63;;;3.05;;
71413;SDS011;59226;53.212;5.728;2022-09-12T03:39:11;6.40;;;3.30;;
71413;SDS011;59226;53.212;5.728;2022-09-12T03:41:37;4.47;;;1.73;;
71413;SDS011;59226;53.212;5.728;2022-09-12T03:44:02;5.87;;;2.23;;
71413;SDS011;59226;53.212;5.728;2022-09-12T03:46:27;9.40;;;2.93;;
71413;SDS011;59226;53.212;5.728;2022-09-12T03:48:52;5.87;;;2.87;;
71413;SDS011;59226;53.212;5.728;2022-09-12T03:51:18;11.47;;;3.43;;
71413;SDS011;59226;53.212;5.728;2022-09-12T03:53:43;7.07;;;3.23;;
71413;SDS011;59226;53.212;5.728;2022-09-12T03:56:08;8.73;;;2.83;;
71413;SDS011;59226;53.212;5.728;2022-09-12T03:58:34;7.53;;;3.78;;
71413;SDS011;59226;53.212;5.728;2022-09-12T04:01:05;6.40;;;2.63;;
71413;SDS011;59226;53.212;5.728;2022-09-12T04:03:30;5.25;;;2.75;;
71413;SDS011;59226;53.212;5.728;2022-09-12T04:05:56;9.30;;;3.80;;
71413;SDS011;59226;53.212;5.728;2022-09-12T04:08:21;5.88;;;2.05;;
71413;SDS011;59226;53.212;5.728;2022-09-12T04:10:46;10.00;;;3.70;;
71413;SDS011;59226;53.212;5.728;2022-09-12T04:13:11;7.37;;;3.83;;
71413;SDS011;59226;53.212;5.728;2022-09-12T04:15:37;6.70;;;3.27;;
71413;SDS011;59226;53.212;5.728;2022-09-12T04:18:02;5.67;;;2.67;;
71413;SDS011;59226;53.212;5.728;2022-09-12T04:20:27;4.80;;;2.47;;
71413;SDS011;59226;53.212;5.728;2022-09-12T04:22:52;6.63;;;2.67;;
71413;SDS011;59226;53.212;5.728;2022-09-12T04:25:17;5.73;;;3.47;;
71413;SDS011;59226;53.212;5.728;2022-09-12T04:27:43;5.53;;;3.47;;
71413;SDS011;59226;53.212;5.728;2022-09-12T04:30:08;5.17;;;2.40;;
71413;SDS011;59226;53.212;5.728;2022-09-12T04:32:33;5.63;;;2.87;;
71413;SDS011;59226;53.212;5.728;2022-09-12T04:34:59;8.47;;;2.70;;
71413;SDS011;59226;53.212;5.728;2022-09-12T04:37:24;15.98;;;4.43;;
71413;SDS011;59226;53.212;5.728;2022-09-12T04:39:49;6.20;;;3.00;;
71413;SDS011;59226;53.212;5.728;2022-09-12T04:42:15;8.27;;;4.07;;
71413;SDS011;59226;53.212;5.728;2022-09-12T04:44:41;6.73;;;3.10;;
71413;SDS011;59226;53.212;5.728;2022-09-12T04:47:06;8.77;;;4.40;;
71413;SDS011;59226;53.212;5.728;2022-09-12T04:49:31;5.67;;;2.50;;
71413;SDS011;59226;53.212;5.728;2022-09-12T04:51:57;11.27;;;4.97;;
71413;SDS011;59226;53.212;5.728;2022-09-12T04:54:22;8.60;;;4.73;;
71413;SDS011;59226;53.212;5.728;2022-09-12T04:56:48;6.00;;;3.30;;
71413;SDS011;59226;53.212;5.728;2022-09-12T04:59:14;7.15;;;3.85;;
71413;SDS011;59226;53.212;5.728;2022-09-12T05:01:39;7.75;;;4.65;;
71413;SDS011;59226;53.212;5.728;2022-09-12T05:04:05;8.80;;;3.63;;
71413;SDS011;59226;53.212;5.728;2022-09-12T05:06:34;12.23;;;5.43;;
71413;SDS011;59226;53.212;5.728;2022-09-12T05:09:00;6.15;;;3.00;;
71413;SDS011;59226;53.212;5.728;2022-09-12T05:11:27;9.63;;;5.18;;
71413;SDS011;59226;53.212;5.728;2022-09-12T05:13:53;6.90;;;3.35;;
71413;SDS011;59226;53.212;5.728;2022-09-12T05:16:19;7.40;;;3.20;;
71413;SDS011;59226;53.212;5.728;2022-09-12T05:18:45;7.03;;;3.45;;
71413;SDS011;59226;53.212;5.728;2022-09-12T05:21:12;6.07;;;3.38;;
71413;SDS011;59226;53.212;5.728;2022-09-12T05:23:37;6.47;;;2.87;;
71413;SDS011;59226;53.212;5.728;2022-09-12T05:26:03;7.78;;;4.07;;
71413;SDS011;59226;53.212;5.728;2022-09-12T05:28:30;15.70;;;4.97;;
71413;SDS011;59226;53.212;5.728;2022-09-12T05:31:00;4.53;;;2.30;;
71413;SDS011;59226;53.212;5.728;2022-09-12T05:33:25;8.25;;;3.05;;
71413;SDS011;59226;53.212;5.728;2022-09-12T05:35:51;6.10;;;2.93;;
71413;SDS011;59226;53.212;5.728;2022-09-12T05:38:16;5.53;;;3.13;;
71413;SDS011;59226;53.212;5.728;2022-09-12T05:40:42;7.10;;;4.10;;
71413;SDS011;59226;53.212;5.728;2022-09-12T05:43:07;8.57;;;4.73;;
71413;SDS011;59226;53.212;5.728;2022-09-12T05:45:32;5.53;;;2.87;;
71413;SDS011;59226;53.212;5.728;2022-09-12T05:47:58;7.93;;;3.90;;
71413;SDS011;59226;53.212;5.728;2022-09-12T05:50:24;6.90;;;2.23;;
71413;SDS011;59226;53.212;5.728;2022-09-12T05:52:49;8.17;;;3.70;;
71413;SDS011;59226;53.212;5.728;2022-09-12T05:55:14;6.73;;;2.67;;
71413;SDS011;59226;53.212;5.728;2022-09-12T05:57:42;7.20;;;3.00;;
71413;SDS011;59226;53.212;5.728;2022-09-12T06:00:09;7.10;;;4.07;;
71413;SDS011;59226;53.212;5.728;2022-09-12T06:02:35;7.63;;;3.30;;
71413;SDS011;59226;53.212;5.728;2022-09-12T06:05:00;9.77;;;4.90;;
71413;SDS011;59226;53.212;5.728;2022-09-12T06:07:25;6.22;;;3.00;;
71413;SDS011;59226;53.212;5.728;2022-09-12T06:09:51;5.53;;;3.43;;
71413;SDS011;59226;53.212;5.728;2022-09-12T06:12:16;6.83;;;3.90;;
71413;SDS011;59226;53.212;5.728;2022-09-12T06:14:41;8.70;;;4.80;;
71413;SDS011;59226;53.212;5.728;2022-09-12T06:17:07;7.53;;;3.77;;
71413;SDS011;59226;53.212;5.728;2022-09-12T06:19:32;6.53;;;3.80;;
71413;SDS011;59226;53.212;5.728;2022-09-12T06:21:58;6.70;;;3.85;;
71413;SDS011;59226;53.212;5.728;2022-09-12T06:24:23;10.83;;;4.07;;
71413;SDS011;59226;53.212;5.728;2022-09-12T06:26:48;8.53;;;3.63;;
71413;SDS011;59226;53.212;5.728;2022-09-12T06:29:15;5.13;;;2.20;;
71413;SDS011;59226;53.212;5.728;2022-09-12T06:31:41;6.30;;;3.30;;
71413;SDS011;59226;53.212;5.728;2022-09-12T06:34:08;11.63;;;4.57;;
71413;SDS011;59226;53.212;5.728;2022-09-12T06:36:41;6.03;;;3.30;;
71413;SDS011;59226;53.212;5.728;2022-09-12T06:39:10;7.75;;;3.70;;
71413;SDS011;59226;53.212;5.728;2022-09-12T06:41:36;6.38;;;3.95;;
71413;SDS011;59226;53.212;5.728;2022-09-12T06:44:01;6.10;;;3.07;;
71413;SDS011;59226;53.212;5.728;2022-09-12T06:46:27;9.53;;;4.73;;
71413;SDS011;59226;53.212;5.728;2022-09-12T06:48:54;6.83;;;3.43;;
71413;SDS011;59226;53.212;5.728;2022-09-12T06:51:19;5.70;;;3.08;;
71413;SDS011;59226;53.212;5.728;2022-09-12T06:53:45;10.20;;;4.10;;
71413;SDS011;59226;53.212;5.728;2022-09-12T06:56:11;6.80;;;3.72;;
71413;SDS011;59226;53.212;5.728;2022-09-12T06:58:37;5.80;;;2.92;;
71413;SDS011;59226;53.212;5.728;2022-09-12T07:01:10;5.87;;;1.97;;
71413;SDS011;59226;53.212;5.728;2022-09-12T07:03:36;10.32;;;2.70;;
71413;SDS011;59226;53.212;5.728;2022-09-12T07:06:09;9.82;;;4.78;;
71413;SDS011;59226;53.212;5.728;2022-09-12T07:08:35;8.53;;;3.90;;
71413;SDS011;59226;53.212;5.728;2022-09-12T07:11:15;10.35;;;3.47;;
71413;SDS011;59226;53.212;5.728;2022-09-12T07:13:41;6.50;;;3.70;;
71413;SDS011;59226;53.212;5.728;2022-09-12T07:16:06;5.90;;;3.53;;
71413;SDS011;59226;53.212;5.728;2022-09-12T07:18:33;6.57;;;3.83;;
71413;SDS011;59226;53.212;5.728;2022-09-12T07:21:02;7.70;;;4.20;;
71413;SDS011;59226;53.212;5.728;2022-09-12T07:23:29;8.18;;;3.03;;
71413;SDS011;59226;53.212;5.728;2022-09-12T07:25:54;9.30;;;3.57;;
71413;SDS011;59226;53.212;5.728;2022-09-12T07:28:26;9.05;;;3.53;;
71413;SDS011;59226;53.212;5.728;2022-09-12T07:30:52;8.45;;;4.15;;
71413;SDS011;59226;53.212;5.728;2022-09-12T07:33:27;6.93;;;3.30;;
71413;SDS011;59226;53.212;5.728;2022-09-12T07:35:52;7.15;;;2.97;;
71413;SDS011;59226;53.212;5.728;2022-09-12T07:38:18;7.28;;;3.45;;
71413;SDS011;59226;53.212;5.728;2022-09-12T07:40:44;8.90;;;4.30;;
71413;SDS011;59226;53.212;5.728;2022-09-12T07:43:09;7.87;;;4.13;;
71413;SDS011;59226;53.212;5.728;2022-09-12T07:45:34;12.60;;;5.10;;
71413;SDS011;59226;53.212;5.728;2022-09-12T07:48:00;7.37;;;4.17;;
71413;SDS011;59226;53.212;5.728;2022-09-12T07:50:25;9.00;;;4.80;;
71413;SDS011;59226;53.212;5.728;2022-09-12T07:52:52;6.50;;;3.43;;
71413;SDS011;59226;53.212;5.728;2022-09-12T07:55:17;11.65;;;4.60;;
71413;SDS011;59226;53.212;5.728;2022-09-12T07:57:43;8.10;;;4.20;;
71413;SDS011;59226;53.212;5.728;2022-09-12T08:00:08;9.93;;;4.10;;
71413;SDS011;59226;53.212;5.728;2022-09-12T08:02:34;8.13;;;4.33;;
71413;SDS011;59226;53.212;5.728;2022-09-12T08:05:00;9.07;;;5.00;;
71413;SDS011;59226;53.212;5.728;2022-09-12T08:07:26;9.17;;;4.50;;
71413;SDS011;59226;53.212;5.728;2022-09-12T08:09:51;11.57;;;4.67;;
71413;SDS011;59226;53.212;5.728;2022-09-12T08:12:17;9.73;;;3.92;;
71413;SDS011;59226;53.212;5.728;2022-09-12T08:14:44;9.57;;;4.65;;
71413;SDS011;59226;53.212;5.728;2022-09-12T08:17:09;9.37;;;5.03;;
71413;SDS011;59226;53.212;5.728;2022-09-12T08:19:34;9.90;;;5.40;;
71413;SDS011;59226;53.212;5.728;2022-09-12T08:21:59;8.73;;;5.20;;
71413;SDS011;59226;53.212;5.728;2022-09-12T08:24:25;10.80;;;5.43;;
71413;SDS011;59226;53.212;5.728;2022-09-12T08:26:50;10.77;;;4.53;;
71413;SDS011;59226;53.212;5.728;2022-09-12T08:29:15;7.23;;;4.23;;
71413;SDS011;59226;53.212;5.728;2022-09-12T08:31:41;21.35;;;4.97;;
71413;SDS011;59226;53.212;5.728;2022-09-12T08:34:06;9.53;;;4.70;;
71413;SDS011;59226;53.212;5.728;2022-09-12T08:36:32;7.97;;;5.03;;
71413;SDS011;59226;53.212;5.728;2022-09-12T08:38:58;12.48;;;6.22;;
71413;SDS011;59226;53.212;5.728;2022-09-12T08:46:25;10.85;;;5.63;;
71413;SDS011;59226;53.212;5.728;2022-09-12T08:48:52;10.73;;;4.18;;
71413;SDS011;59226;53.212;5.728;2022-09-12T08:51:19;9.18;;;4.47;;
71413;SDS011;59226;53.212;5.728;2022-09-12T08:53:45;10.27;;;5.43;;
71413;SDS011;59226;53.212;5.728;2022-09-12T08:56:11;18.55;;;5.85;;
71413;SDS011;59226;53.212;5.728;2022-09-12T08:58:41;8.90;;;4.30;;
71413;SDS011;59226;53.212;5.728;2022-09-12T09:06:39;15.80;;;6.25;;
71413;SDS011;59226;53.212;5.728;2022-09-12T09:11:58;10.20;;;4.32;;
71413;SDS011;59226;53.212;5.728;2022-09-12T09:17:18;10.98;;;4.68;;
71413;SDS011;59226;53.212;5.728;2022-09-12T09:19:48;7.80;;;3.67;;
71413;SDS011;59226;53.212;5.728;2022-09-12T09:22:30;11.00;;;4.78;;
71413;SDS011;59226;53.212;5.728;2022-09-12T09:24:58;11.95;;;5.15;;
71413;SDS011;59226;53.212;5.728;2022-09-12T09:27:30;11.10;;;3.97;;
71413;SDS011;59226;53.212;5.728;2022-09-12T09:29:57;12.80;;;5.10;;
71413;SDS011;59226;53.212;5.728;2022-09-12T09:32:33;12.25;;;5.47;;
71413;SDS011;59226;53.212;5.728;2022-09-12T09:35:01;10.30;;;4.28;;
71413;SDS011;59226;53.212;5.728;2022-09-12T09:40:00;10.90;;;4.87;;
71413;SDS011;59226;53.212;5.728;2022-09-12T09:42:40;10.43;;;4.70;;
71413;SDS011;59226;53.212;5.728;2022-09-12T09:45:14;12.50;;;4.68;;
71413;SDS011;59226;53.212;5.728;2022-09-12T09:47:44;12.48;;;4.60;;
71413;SDS011;59226;53.212;5.728;2022-09-12T09:50:15;6.47;;;3.05;;
71413;SDS011;59226;53.212;5.728;2022-09-12T09:52:41;6.15;;;2.97;;
71413;SDS011;59226;53.212;5.728;2022-09-12T09:55:09;5.93;;;2.90;;
71413;SDS011;59226;53.212;5.728;2022-09-12T09:57:39;8.65;;;3.53;;
71413;SDS011;59226;53.212;5.728;2022-09-12T10:03:00;9.60;;;2.87;;
71413;SDS011;59226;53.212;5.728;2022-09-12T10:05:27;5.95;;;3.08;;
71413;SDS011;59226;53.212;5.728;2022-09-12T10:07:52;10.98;;;4.13;;
71413;SDS011;59226;53.212;5.728;2022-09-12T10:10:18;7.37;;;3.43;;
71413;SDS011;59226;53.212;5.728;2022-09-12T10:12:44;9.30;;;4.43;;
71413;SDS011;59226;53.212;5.728;2022-09-12T10:15:23;7.87;;;3.87;;
71413;SDS011;59226;53.212;5.728;2022-09-12T10:17:50;13.73;;;3.58;;
71413;SDS011;59226;53.212;5.728;2022-09-12T10:20:29;8.48;;;3.40;;
71413;SDS011;59226;53.212;5.728;2022-09-12T10:22:55;5.27;;;2.47;;
71413;SDS011;59226;53.212;5.728;2022-09-12T10:25:22;8.00;;;3.25;;
71413;SDS011;59226;53.212;5.728;2022-09-12T10:27:55;4.13;;;2.60;;
71413;SDS011;59226;53.212;5.728;2022-09-12T10:30:22;7.50;;;3.88;;
71413;SDS011;59226;53.212;5.728;2022-09-12T10:32:52;6.72;;;2.97;;
71413;SDS011;59226;53.212;5.728;2022-09-12T10:40:30;6.57;;;2.63;;
71413;SDS011;59226;53.212;5.728;2022-09-12T10:42:58;7.38;;;2.83;;
71413;SDS011;59226;53.212;5.728;2022-09-12T10:47:49;10.33;;;3.17;;
71413;SDS011;59226;53.212;5.728;2022-09-12T10:50:19;5.85;;;2.05;;
71413;SDS011;59226;53.212;5.728;2022-09-12T10:52:44;4.30;;;1.95;;
71413;SDS011;59226;53.212;5.728;2022-09-12T10:55:13;9.80;;;2.30;;
71413;SDS011;59226;53.212;5.728;2022-09-12T11:05:11;6.40;;;2.57;;
71413;SDS011;59226;53.212;5.728;2022-09-12T11:07:46;5.13;;;1.85;;
71413;SDS011;59226;53.212;5.728;2022-09-12T11:12:51;6.15;;;2.60;;
71413;SDS011;59226;53.212;5.728;2022-09-12T11:23:13;4.15;;;2.08;;
71413;SDS011;59226;53.212;5.728;2022-09-12T11:25:56;4.07;;;1.65;;
71413;SDS011;59226;53.212;5.728;2022-09-12T11:28:46;3.13;;;1.67;;
71413;SDS011;59226;53.212;5.728;2022-09-12T11:33:58;5.72;;;2.17;;
71413;SDS011;59226;53.212;5.728;2022-09-12T11:36:33;5.10;;;2.75;;
71413;SDS011;59226;53.212;5.728;2022-09-12T11:39:16;5.15;;;2.17;;
71413;SDS011;59226;53.212;5.728;2022-09-12T11:41:49;4.13;;;1.70;;
71413;SDS011;59226;53.212;5.728;2022-09-12T11:44:33;2.88;;;1.65;;
71413;SDS011;59226;53.212;5.728;2022-09-12T11:46:58;2.90;;;1.20;;
71413;SDS011;59226;53.212;5.728;2022-09-12T11:49:44;5.03;;;1.98;;
71413;SDS011;59226;53.212;5.728;2022-09-12T11:52:18;5.18;;;1.90;;
71413;SDS011;59226;53.212;5.728;2022-09-12T12:02:25;4.43;;;2.10;;
71413;SDS011;59226;53.212;5.728;2022-09-12T12:05:01;5.50;;;1.88;;
71413;SDS011;59226;53.212;5.728;2022-09-12T12:07:30;5.45;;;2.40;;
71413;SDS011;59226;53.212;5.728;2022-09-12T12:09:58;4.27;;;1.87;;
71413;SDS011;59226;53.212;5.728;2022-09-12T12:12:24;4.90;;;1.90;;
71413;SDS011;59226;53.212;5.728;2022-09-12T12:14:52;5.27;;;2.47;;
71413;SDS011;59226;53.212;5.728;2022-09-12T12:17:19;5.78;;;2.67;;
71413;SDS011;59226;53.212;5.728;2022-09-12T12:19:44;4.63;;;1.95;;
71413;SDS011;59226;53.212;5.728;2022-09-12T12:22:17;6.63;;;2.53;;
71413;SDS011;59226;53.212;5.728;2022-09-12T12:32:57;3.97;;;2.38;;
71413;SDS011;59226;53.212;5.728;2022-09-12T12:38:01;4.57;;;1.48;;
71413;SDS011;59226;53.212;5.728;2022-09-12T12:40:28;3.70;;;2.13;;
71413;SDS011;59226;53.212;5.728;2022-09-12T12:42:57;3.55;;;1.55;;
71413;SDS011;59226;53.212;5.728;2022-09-12T12:47:58;3.17;;;1.63;;
71413;SDS011;59226;53.212;5.728;2022-09-12T12:50:26;8.48;;;1.80;;
71413;SDS011;59226;53.212;5.728;2022-09-12T12:55:22;6.57;;;1.95;;
71413;SDS011;59226;53.212;5.728;2022-09-12T12:57:59;2.92;;;1.73;;
71413;SDS011;59226;53.212;5.728;2022-09-12T13:00:43;3.67;;;1.83;;
71413;SDS011;59226;53.212;5.728;2022-09-12T13:03:17;3.15;;;1.60;;
71413;SDS011;59226;53.212;5.728;2022-09-12T13:05:46;4.07;;;2.20;;
71413;SDS011;59226;53.212;5.728;2022-09-12T13:10:49;4.82;;;2.00;;
71413;SDS011;59226;53.212;5.728;2022-09-12T13:13:22;4.88;;;1.67;;
71413;SDS011;59226;53.212;5.728;2022-09-12T13:15:49;4.75;;;2.00;;
71413;SDS011;59226;53.212;5.728;2022-09-12T13:18:22;4.13;;;1.30;;
71413;SDS011;59226;53.212;5.728;2022-09-12T13:20:53;4.53;;;1.75;;
71413;SDS011;59226;53.212;5.728;2022-09-12T13:23:23;3.45;;;1.30;;
71413;SDS011;59226;53.212;5.728;2022-09-12T13:25:52;4.20;;;1.33;;
71413;SDS011;59226;53.212;5.728;2022-09-12T13:28:18;3.80;;;1.50;;
71413;SDS011;59226;53.212;5.728;2022-09-12T13:33:33;3.30;;;1.55;;
71413;SDS011;59226;53.212;5.728;2022-09-12T13:36:09;2.60;;;1.67;;
71413;SDS011;59226;53.212;5.728;2022-09-12T13:43:40;4.78;;;1.90;;
71413;SDS011;59226;53.212;5.728;2022-09-12T13:46:06;10.57;;;4.30;;
71413;SDS011;59226;53.212;5.728;2022-09-12T13:48:32;5.50;;;2.07;;
71413;SDS011;59226;53.212;5.728;2022-09-12T13:50:59;5.03;;;2.85;;
71413;SDS011;59226;53.212;5.728;2022-09-12T13:53:25;5.20;;;2.17;;
71413;SDS011;59226;53.212;5.728;2022-09-12T13:55:52;5.35;;;1.90;;
71413;SDS011;59226;53.212;5.728;2022-09-12T14:01:00;4.03;;;1.83;;
71413;SDS011;59226;53.212;5.728;2022-09-12T14:03:27;4.47;;;1.83;;
71413;SDS011;59226;53.212;5.728;2022-09-12T14:06:11;3.53;;;1.70;;
71413;SDS011;59226;53.212;5.728;2022-09-12T14:08:37;5.53;;;2.60;;
71413;SDS011;59226;53.212;5.728;2022-09-12T14:11:06;3.67;;;1.60;;
71413;SDS011;59226;53.212;5.728;2022-09-12T14:13:32;4.80;;;2.65;;
71413;SDS011;59226;53.212;5.728;2022-09-12T14:15:58;5.55;;;2.50;;
71413;SDS011;59226;53.212;5.728;2022-09-12T14:18:29;3.53;;;2.10;;
71413;SDS011;59226;53.212;5.728;2022-09-12T14:21:00;3.85;;;1.85;;
71413;SDS011;59226;53.212;5.728;2022-09-12T14:25:51;7.53;;;1.93;;
71413;SDS011;59226;53.212;5.728;2022-09-12T14:28:17;4.50;;;2.47;;
71413;SDS011;59226;53.212;5.728;2022-09-12T14:30:55;5.82;;;1.98;;
71413;SDS011;59226;53.212;5.728;2022-09-12T14:33:21;3.30;;;1.50;;
71413;SDS011;59226;53.212;5.728;2022-09-12T14:35:47;8.63;;;2.53;;
71413;SDS011;59226;53.212;5.728;2022-09-12T14:40:48;4.18;;;1.88;;
71413;SDS011;59226;53.212;5.728;2022-09-12T14:43:19;3.30;;;1.65;;
71413;SDS011;59226;53.212;5.728;2022-09-12T14:48:24;6.32;;;2.55;;
71413;SDS011;59226;53.212;5.728;2022-09-12T14:50:50;6.43;;;2.30;;
71413;SDS011;59226;53.212;5.728;2022-09-12T14:55:42;3.70;;;2.30;;
71413;SDS011;59226;53.212;5.728;2022-09-12T15:00:36;6.38;;;2.50;;
71413;SDS011;59226;53.212;5.728;2022-09-12T15:03:22;5.63;;;2.50;;
71413;SDS011;59226;53.212;5.728;2022-09-12T15:05:48;3.77;;;2.27;;
71413;SDS011;59226;53.212;5.728;2022-09-12T15:08:14;5.05;;;2.33;;
71413;SDS011;59226;53.212;5.728;2022-09-12T15:10:39;4.82;;;1.98;;
71413;SDS011;59226;53.212;5.728;2022-09-12T15:15:33;4.78;;;2.40;;
71413;SDS011;59226;53.212;5.728;2022-09-12T15:17:59;4.93;;;2.70;;
71413;SDS011;59226;53.212;5.728;2022-09-12T15:20:24;5.67;;;2.63;;
71413;SDS011;59226;53.212;5.728;2022-09-12T15:22:50;4.22;;;2.22;;
71413;SDS011;59226;53.212;5.728;2022-09-12T15:25:15;4.63;;;2.03;;
71413;SDS011;59226;53.212;5.728;2022-09-12T15:27:40;4.17;;;1.80;;
71413;SDS011;59226;53.212;5.728;2022-09-12T15:30:10;4.63;;;1.83;;
71413;SDS011;59226;53.212;5.728;2022-09-12T15:32:36;4.50;;;2.05;;
71413;SDS011;59226;53.212;5.728;2022-09-12T15:35:01;4.03;;;2.10;;
71413;SDS011;59226;53.212;5.728;2022-09-12T15:37:27;5.10;;;2.47;;
71413;SDS011;59226;53.212;5.728;2022-09-12T15:39:53;5.93;;;2.08;;
71413;SDS011;59226;53.212;5.728;2022-09-12T15:42:20;5.10;;;2.40;;
71413;SDS011;59226;53.212;5.728;2022-09-12T15:44:48;3.97;;;2.03;;
71413;SDS011;59226;53.212;5.728;2022-09-12T15:47:14;5.10;;;2.30;;
71413;SDS011;59226;53.212;5.728;2022-09-12T15:49:39;5.60;;;2.43;;
71413;SDS011;59226;53.212;5.728;2022-09-12T15:52:05;4.78;;;2.63;;
71413;SDS011;59226;53.212;5.728;2022-09-12T15:54:31;4.75;;;2.78;;
71413;SDS011;59226;53.212;5.728;2022-09-12T15:56:56;3.70;;;2.13;;
71413;SDS011;59226;53.212;5.728;2022-09-12T15:59:21;5.07;;;2.63;;
71413;SDS011;59226;53.212;5.728;2022-09-12T16:01:46;3.13;;;1.70;;
71413;SDS011;59226;53.212;5.728;2022-09-12T16:04:23;4.28;;;2.30;;
71413;SDS011;59226;53.212;5.728;2022-09-12T16:06:49;7.13;;;2.30;;
71413;SDS011;59226;53.212;5.728;2022-09-12T16:09:14;5.03;;;2.40;;
71413;SDS011;59226;53.212;5.728;2022-09-12T16:11:39;5.57;;;2.50;;
71413;SDS011;59226;53.212;5.728;2022-09-12T16:14:05;8.83;;;2.10;;
71413;SDS011;59226;53.212;5.728;2022-09-12T16:16:30;6.03;;;2.40;;
71413;SDS011;59226;53.212;5.728;2022-09-12T16:18:56;6.57;;;3.33;;
71413;SDS011;59226;53.212;5.728;2022-09-12T16:21:21;5.40;;;2.37;;
71413;SDS011;59226;53.212;5.728;2022-09-12T16:23:47;3.97;;;2.17;;
71413;SDS011;59226;53.212;5.728;2022-09-12T16:26:12;3.58;;;1.77;;
71413;SDS011;59226;53.212;5.728;2022-09-12T16:28:38;4.37;;;1.93;;
71413;SDS011;59226;53.212;5.728;2022-09-12T16:31:03;5.63;;;2.23;;
71413;SDS011;59226;53.212;5.728;2022-09-12T16:33:30;5.82;;;2.75;;
71413;SDS011;59226;53.212;5.728;2022-09-12T16:38:27;5.53;;;2.50;;
71413;SDS011;59226;53.212;5.728;2022-09-12T16:40:58;5.10;;;2.20;;
71413;SDS011;59226;53.212;5.728;2022-09-12T16:43:23;5.90;;;3.05;;
71413;SDS011;59226;53.212;5.728;2022-09-12T16:45:48;4.53;;;2.30;;
71413;SDS011;59226;53.212;5.728;2022-09-12T16:48:14;5.87;;;2.23;;
71413;SDS011;59226;53.212;5.728;2022-09-12T16:50:39;6.73;;;1.90;;
71413;SDS011;59226;53.212;5.728;2022-09-12T16:53:04;4.83;;;2.30;;
71413;SDS011;59226;53.212;5.728;2022-09-12T16:55:29;3.83;;;1.47;;
71413;SDS011;59226;53.212;5.728;2022-09-12T16:57:55;4.57;;;2.20;;
71413;SDS011;59226;53.212;5.728;2022-09-12T17:00:20;5.97;;;2.87;;
71413;SDS011;59226;53.212;5.728;2022-09-12T17:02:45;5.53;;;2.37;;
71413;SDS011;59226;53.212;5.728;2022-09-12T17:05:11;3.87;;;2.00;;
71413;SDS011;59226;53.212;5.728;2022-09-12T17:07:36;5.65;;;2.55;;
71413;SDS011;59226;53.212;5.728;2022-09-12T17:10:02;6.60;;;2.23;;
71413;SDS011;59226;53.212;5.728;2022-09-12T17:12:27;4.87;;;2.33;;
71413;SDS011;59226;53.212;5.728;2022-09-12T17:14:52;7.03;;;3.63;;
71413;SDS011;59226;53.212;5.728;2022-09-12T17:17:18;7.60;;;3.10;;
71413;SDS011;59226;53.212;5.728;2022-09-12T17:19:43;3.43;;;1.60;;
71413;SDS011;59226;53.212;5.728;2022-09-12T17:22:08;6.03;;;2.40;;